createdAt,value
2023-05-18T00:00:21.446Z,12.08
2023-05-18T00:00:45.267Z,12.08
2023-05-18T00:01:07.568Z,12.07
2023-05-18T00:01:31.089Z,12.07
2023-05-18T00:01:54.328Z,12.06
2023-05-18T00:02:16.876Z,12.06
2023-05-18T00:02:39.326Z,12.06
2023-05-18T00:03:02.415Z,12.05
2023-05-18T00:03:24.784Z,12.04
2023-05-18T00:03:47.640Z,12.03
2023-05-18T00:04:10.163Z,12.03
2023-05-18T00:04:34.244Z,12.02
2023-05-18T00:04:56.252Z,12.01
2023-05-18T00:05:20.522Z,12.02
2023-05-18T00:05:43.194Z,12.03
2023-05-18T00:06:07.287Z,12.03
2023-05-18T00:06:29.215Z,12.04
2023-05-18T00:06:57.151Z,12.05
2023-05-18T00:07:18.881Z,12.06
2023-05-18T00:07:41.326Z,12.07
2023-05-18T00:08:03.413Z,12.07
2023-05-18T00:08:25.301Z,12.08
2023-05-18T00:08:47.185Z,12.09
2023-05-18T00:09:08.926Z,12.10
2023-05-18T00:09:31.673Z,12.10
2023-05-18T00:09:53.604Z,12.11
2023-05-18T00:10:15.632Z,12.11
2023-05-18T00:10:37.560Z,12.11
2023-05-18T00:10:59.404Z,12.10
2023-05-18T00:11:21.958Z,12.10
2023-05-18T00:11:43.816Z,12.09
2023-05-18T00:12:06.213Z,12.08
2023-05-18T00:12:28.118Z,12.07
2023-05-18T00:12:49.994Z,12.06
2023-05-18T00:13:12.075Z,12.06
2023-05-18T00:13:34.081Z,12.05
2023-05-18T00:13:55.954Z,12.04
2023-05-18T00:14:17.865Z,12.03
2023-05-18T00:14:39.724Z,12.03
2023-05-18T00:15:02.029Z,12.02
2023-05-18T00:15:24.018Z,12.00
2023-05-18T00:15:46.136Z,12.00
2023-05-18T00:16:08.149Z,11.99
2023-05-18T00:16:30.126Z,11.98
2023-05-18T00:16:54.119Z,11.98
2023-05-18T00:17:16.315Z,11.97
2023-05-18T00:17:38.214Z,11.97
2023-05-18T00:18:00.267Z,11.96
2023-05-18T00:18:23.969Z,11.96
2023-05-18T00:18:46.400Z,11.95
2023-05-18T00:19:08.971Z,11.94
2023-05-18T00:19:31.585Z,11.93
2023-05-18T00:19:53.427Z,11.92
2023-05-18T00:20:15.499Z,11.91
2023-05-18T00:20:37.582Z,11.90
2023-05-18T00:20:59.475Z,11.89
2023-05-18T00:21:22.787Z,11.88
2023-05-18T00:21:46.382Z,11.88
2023-05-18T00:22:08.314Z,11.87
2023-05-18T00:22:30.204Z,11.86
2023-05-18T00:22:52.956Z,11.85
2023-05-18T00:23:16.683Z,11.84
2023-05-18T00:23:39.766Z,11.83
2023-05-18T00:24:01.863Z,11.82
2023-05-18T00:24:23.717Z,11.81
2023-05-18T00:24:46.626Z,11.79
2023-05-18T00:25:08.716Z,11.78
2023-05-18T00:25:30.853Z,11.78
2023-05-18T00:25:52.808Z,11.76
2023-05-18T00:26:14.683Z,11.75
2023-05-18T00:26:37.905Z,11.75
2023-05-18T00:26:59.784Z,11.73
2023-05-18T00:27:22.305Z,11.72
2023-05-18T00:27:44.175Z,11.72
2023-05-18T00:28:06.089Z,11.70
2023-05-18T00:28:27.853Z,11.70
2023-05-18T00:28:49.734Z,11.70
2023-05-18T00:29:11.720Z,11.70
2023-05-18T00:29:33.535Z,11.71
2023-05-18T00:29:55.392Z,11.72
2023-05-18T00:30:17.210Z,11.74
2023-05-18T00:30:39.674Z,11.75
2023-05-18T00:31:01.576Z,11.76
2023-05-18T00:31:23.428Z,11.77
2023-05-18T00:31:46.121Z,11.79
2023-05-18T00:32:07.992Z,11.79
2023-05-18T00:32:32.294Z,11.82
2023-05-18T00:32:54.099Z,11.82
2023-05-18T00:33:16.156Z,11.84
2023-05-18T00:33:37.969Z,11.84
2023-05-18T00:33:59.775Z,11.85
2023-05-18T00:34:22.057Z,11.85
2023-05-18T00:34:44.021Z,11.85
2023-05-18T00:35:06.274Z,11.85
2023-05-18T00:35:28.621Z,11.85
2023-05-18T00:35:50.837Z,11.84
2023-05-18T00:36:12.695Z,11.84
2023-05-18T00:36:34.777Z,11.83
2023-05-18T00:36:56.662Z,11.82
2023-05-18T00:37:18.549Z,11.81
2023-05-18T00:37:40.705Z,11.79
2023-05-18T00:38:03.153Z,11.78
2023-05-18T00:38:25.190Z,11.77
2023-05-18T00:38:47.130Z,11.76
2023-05-18T00:39:12.436Z,11.75
2023-05-18T00:39:34.990Z,11.74
2023-05-18T00:39:57.670Z,11.73
2023-05-18T00:40:21.187Z,11.72
2023-05-18T00:40:43.030Z,11.71
2023-05-18T00:41:06.552Z,11.70
2023-05-18T00:41:28.334Z,11.68
2023-05-18T00:41:50.196Z,11.68
2023-05-18T00:42:12.080Z,11.67
2023-05-18T00:42:34.206Z,11.65
2023-05-18T00:42:56.365Z,11.64
2023-05-18T00:43:18.115Z,11.63
2023-05-18T00:43:42.797Z,11.62
2023-05-18T00:44:07.694Z,11.61
2023-05-18T00:44:29.510Z,11.59
2023-05-18T00:44:51.527Z,11.59
2023-05-18T00:45:13.443Z,11.58
2023-05-18T00:45:35.434Z,11.57
2023-05-18T00:45:57.401Z,11.56
2023-05-18T00:46:19.430Z,11.56
2023-05-18T00:46:41.980Z,11.55
2023-05-18T00:47:04.076Z,11.55
2023-05-18T00:47:26.077Z,11.54
2023-05-18T00:47:48.552Z,11.53
2023-05-18T00:48:10.414Z,11.53
2023-05-18T00:48:32.231Z,11.52
2023-05-18T00:48:54.854Z,11.52
2023-05-18T00:49:16.730Z,11.51
2023-05-18T00:49:38.524Z,11.50
2023-05-18T00:50:00.319Z,11.49
2023-05-18T00:50:22.109Z,11.49
2023-05-18T00:50:43.848Z,11.48
2023-05-18T00:51:05.751Z,11.47
2023-05-18T00:51:27.512Z,11.47
2023-05-18T00:51:49.424Z,11.47
2023-05-18T00:52:11.230Z,11.48
2023-05-18T00:52:33.295Z,11.48
2023-05-18T00:52:55.217Z,11.49
2023-05-18T00:53:16.965Z,11.50
2023-05-18T00:53:38.854Z,11.51
2023-05-18T00:54:01.254Z,11.52
2023-05-18T00:54:23.037Z,11.53
2023-05-18T00:54:44.922Z,11.54
2023-05-18T00:55:07.216Z,11.54
2023-05-18T00:55:29.283Z,11.54
2023-05-18T00:55:51.193Z,11.55
2023-05-18T00:56:15.354Z,11.56
2023-05-18T00:56:42.106Z,11.57
2023-05-18T00:57:04.630Z,11.57
2023-05-18T00:57:26.961Z,11.57
2023-05-18T00:57:48.818Z,11.56
2023-05-18T00:58:10.964Z,11.57
2023-05-18T00:58:32.756Z,11.56
2023-05-18T00:58:57.570Z,11.55
2023-05-18T00:59:19.714Z,11.54
2023-05-18T00:59:42.240Z,11.53
2023-05-18T01:00:07.445Z,11.52
2023-05-18T01:00:34.185Z,11.50
2023-05-18T01:00:58.159Z,11.49
2023-05-18T01:01:20.574Z,11.48
2023-05-18T01:01:46.505Z,11.46
2023-05-18T01:02:10.072Z,11.45
2023-05-18T01:02:32.339Z,11.44
2023-05-18T01:02:54.448Z,11.43
2023-05-18T01:03:16.616Z,11.41
2023-05-18T01:03:39.338Z,11.41
2023-05-18T01:04:02.512Z,11.39
2023-05-18T01:04:26.148Z,11.38
2023-05-18T01:04:48.063Z,11.35
2023-05-18T01:05:11.245Z,11.36
2023-05-18T01:05:33.289Z,11.35
2023-05-18T01:05:58.066Z,11.34
2023-05-18T01:06:19.815Z,11.33
2023-05-18T01:06:42.081Z,11.32
2023-05-18T01:07:06.944Z,11.32
2023-05-18T01:07:29.324Z,11.31
2023-05-18T01:07:51.208Z,11.29
2023-05-18T01:08:12.994Z,11.28
2023-05-18T01:08:35.237Z,11.27
2023-05-18T01:08:57.590Z,11.26
2023-05-18T01:09:19.575Z,11.25
2023-05-18T01:09:44.020Z,11.23
2023-05-18T01:10:06.672Z,11.22
2023-05-18T01:10:30.867Z,11.20
2023-05-18T01:10:54.340Z,11.19
2023-05-18T01:11:25.853Z,11.18
2023-05-18T01:11:53.625Z,11.16
2023-05-18T01:12:18.323Z,11.15
2023-05-18T01:13:03.059Z,11.14
2023-05-18T01:13:27.216Z,11.12
2023-05-18T01:13:58.272Z,11.12
2023-05-18T01:14:32.482Z,11.11
2023-05-18T01:15:04.115Z,11.12
2023-05-18T01:15:39.424Z,11.14
2023-05-18T01:16:01.883Z,11.16
2023-05-18T01:16:27.116Z,11.17
2023-05-18T01:16:53.875Z,11.19
2023-05-18T01:17:18.798Z,11.19
2023-05-18T01:17:47.622Z,11.20
2023-05-18T01:18:23.674Z,11.21
2023-05-18T01:18:55.065Z,11.22
2023-05-18T01:19:19.740Z,11.23
2023-05-18T01:19:41.946Z,11.23
2023-05-18T01:20:09.989Z,11.23
2023-05-18T01:20:38.226Z,11.23
2023-05-18T01:21:00.771Z,11.21
2023-05-18T01:21:43.286Z,11.21
2023-05-18T01:22:13.843Z,11.18
2023-05-18T01:22:57.725Z,11.17
2023-05-18T01:23:52.659Z,11.15
2023-05-18T01:24:33.529Z,11.12
2023-05-18T01:24:58.589Z,11.10
2023-05-18T01:25:51.946Z,11.09
2023-05-18T01:26:17.306Z,11.07
2023-05-18T01:26:40.334Z,11.05
2023-05-18T01:27:03.937Z,11.03
2023-05-18T01:27:26.041Z,11.03
2023-05-18T01:27:49.774Z,11.02
2023-05-18T01:28:14.415Z,11.01
2023-05-18T01:28:36.503Z,11.00
2023-05-18T01:29:01.868Z,10.99
2023-05-18T01:29:24.881Z,10.98
2023-05-18T01:29:46.764Z,10.98
2023-05-18T01:30:09.615Z,10.97
2023-05-18T01:30:31.460Z,10.97
2023-05-18T01:30:53.386Z,10.96
2023-05-18T01:31:16.613Z,10.95
2023-05-18T01:31:39.973Z,10.94
2023-05-18T01:32:02.073Z,10.94
2023-05-18T01:32:24.288Z,10.93
2023-05-18T01:32:47.255Z,10.93
2023-05-18T01:33:10.159Z,10.92
2023-05-18T01:33:31.954Z,10.92
2023-05-18T01:33:53.895Z,10.91
2023-05-18T01:34:15.951Z,10.90
2023-05-18T01:34:37.848Z,10.89
2023-05-18T01:34:59.829Z,10.89
2023-05-18T01:35:23.046Z,10.89
2023-05-18T01:35:48.800Z,10.89
2023-05-18T01:36:11.520Z,10.89
2023-05-18T01:36:33.366Z,10.90
2023-05-18T01:36:55.139Z,10.91
2023-05-18T01:37:17.086Z,10.92
2023-05-18T01:37:39.184Z,10.93
2023-05-18T01:38:01.379Z,10.94
2023-05-18T01:38:23.672Z,10.96
2023-05-18T01:38:45.867Z,10.97
2023-05-18T01:39:09.794Z,10.97
2023-05-18T01:39:32.302Z,10.99
2023-05-18T01:39:54.111Z,11.00
2023-05-18T01:40:16.519Z,11.00
2023-05-18T01:40:41.424Z,11.01
2023-05-18T01:41:09.069Z,11.00
2023-05-18T01:41:32.088Z,11.00
2023-05-18T01:41:59.971Z,11.00
2023-05-18T01:42:22.621Z,10.99
2023-05-18T01:42:45.787Z,10.99
2023-05-18T01:43:11.408Z,10.98
2023-05-18T01:43:35.602Z,10.96
2023-05-18T01:44:19.957Z,10.96
2023-05-18T01:44:51.188Z,10.94
2023-05-18T01:45:16.960Z,10.93
2023-05-18T01:45:39.967Z,10.92
2023-05-18T01:46:04.919Z,10.90
2023-05-18T01:46:45.828Z,10.90
2023-05-18T01:47:11.812Z,10.88
2023-05-18T01:47:34.013Z,10.86
2023-05-18T01:47:57.465Z,10.85
2023-05-18T01:48:21.458Z,10.84
2023-05-18T01:48:44.467Z,10.82
2023-05-18T01:49:25.273Z,10.82
2023-05-18T01:49:50.138Z,10.80
2023-05-18T01:50:18.835Z,10.79
2023-05-18T01:50:41.630Z,10.77
2023-05-18T01:51:03.566Z,10.76
2023-05-18T01:51:26.775Z,10.75
2023-05-18T01:51:48.687Z,10.75
2023-05-18T01:52:13.161Z,10.73
2023-05-18T01:52:39.495Z,10.73
2023-05-18T01:53:04.144Z,10.72
2023-05-18T01:53:32.065Z,10.71
2023-05-18T01:53:56.098Z,10.70
2023-05-18T01:54:19.171Z,10.69
2023-05-18T01:54:41.915Z,10.69
2023-05-18T01:55:04.254Z,10.68
2023-05-18T01:55:29.461Z,10.67
2023-05-18T01:55:53.098Z,10.67
2023-05-18T01:56:14.987Z,10.66
2023-05-18T01:56:36.757Z,10.65
2023-05-18T01:56:58.659Z,10.65
2023-05-18T01:57:24.639Z,10.65
2023-05-18T01:57:46.829Z,10.66
2023-05-18T01:58:09.950Z,10.67
2023-05-18T01:58:31.836Z,10.68
2023-05-18T01:58:53.621Z,10.69
2023-05-18T01:59:15.732Z,10.70
2023-05-18T01:59:38.104Z,10.72
2023-05-18T02:00:04.463Z,10.73
2023-05-18T02:00:37.937Z,10.75
2023-05-18T02:01:00.027Z,10.76
2023-05-18T02:01:23.216Z,10.76
2023-05-18T02:01:45.687Z,10.76
2023-05-18T02:02:07.703Z,10.77
2023-05-18T02:02:30.981Z,10.77
2023-05-18T02:02:53.151Z,10.77
2023-05-18T02:03:15.129Z,10.76
2023-05-18T02:03:37.305Z,10.76
2023-05-18T02:03:59.688Z,10.75
2023-05-18T02:04:21.486Z,10.74
2023-05-18T02:04:43.394Z,10.73
2023-05-18T02:05:07.830Z,10.72
2023-05-18T02:05:29.929Z,10.71
2023-05-18T02:05:52.043Z,10.69
2023-05-18T02:06:14.009Z,10.68
2023-05-18T02:06:37.139Z,10.67
2023-05-18T02:06:59.039Z,10.66
2023-05-18T02:07:20.897Z,10.65
2023-05-18T02:07:44.275Z,10.64
2023-05-18T02:08:06.719Z,10.62
2023-05-18T02:08:28.616Z,10.62
2023-05-18T02:08:51.100Z,10.61
2023-05-18T02:09:13.195Z,10.60
2023-05-18T02:09:35.190Z,10.59
2023-05-18T02:09:56.983Z,10.58
2023-05-18T02:10:18.966Z,10.58
2023-05-18T02:10:41.049Z,10.57
2023-05-18T02:11:02.847Z,10.57
2023-05-18T02:11:24.720Z,10.56
2023-05-18T02:11:47.121Z,10.56
2023-05-18T02:12:09.109Z,10.55
2023-05-18T02:12:31.197Z,10.55
2023-05-18T02:12:54.117Z,10.55
2023-05-18T02:13:16.295Z,10.54
2023-05-18T02:13:38.111Z,10.54
2023-05-18T02:14:01.078Z,10.54
2023-05-18T02:14:23.089Z,10.53
2023-05-18T02:14:45.224Z,10.53
2023-05-18T02:15:07.677Z,10.53
2023-05-18T02:15:30.013Z,10.53
2023-05-18T02:15:52.298Z,10.53
2023-05-18T02:16:14.313Z,10.54
2023-05-18T02:16:36.418Z,10.54
2023-05-18T02:16:58.436Z,10.55
2023-05-18T02:17:22.370Z,10.57
2023-05-18T02:17:45.014Z,10.58
2023-05-18T02:18:08.545Z,10.61
2023-05-18T02:18:34.324Z,10.62
2023-05-18T02:18:56.491Z,10.64
2023-05-18T02:19:19.279Z,10.66
2023-05-18T02:19:41.356Z,10.68
2023-05-18T02:20:07.060Z,10.70
2023-05-18T02:20:32.837Z,10.72
2023-05-18T02:21:00.638Z,10.73
2023-05-18T02:21:22.513Z,10.74
2023-05-18T02:21:45.013Z,10.75
2023-05-18T02:22:07.322Z,10.75
2023-05-18T02:22:29.294Z,10.75
2023-05-18T02:22:51.019Z,10.75
2023-05-18T02:23:13.179Z,10.75
2023-05-18T02:23:35.055Z,10.74
2023-05-18T02:23:57.469Z,10.74
2023-05-18T02:24:19.208Z,10.74
2023-05-18T02:24:41.267Z,10.73
2023-05-18T02:25:03.623Z,10.73
2023-05-18T02:25:25.720Z,10.72
2023-05-18T02:25:47.606Z,10.72
2023-05-18T02:26:09.352Z,10.71
2023-05-18T02:26:31.143Z,10.70
2023-05-18T02:26:53.060Z,10.69
2023-05-18T02:27:15.663Z,10.69
2023-05-18T02:27:37.755Z,10.68
2023-05-18T02:27:59.509Z,10.68
2023-05-18T02:28:21.834Z,10.68
2023-05-18T02:28:43.570Z,10.67
2023-05-18T02:29:12.065Z,10.67
2023-05-18T02:29:34.079Z,10.66
2023-05-18T02:29:57.052Z,10.65
2023-05-18T02:30:18.977Z,10.65
2023-05-18T02:30:41.541Z,10.64
2023-05-18T02:31:09.976Z,10.64
2023-05-18T02:31:31.782Z,10.63
2023-05-18T02:31:56.274Z,10.63
2023-05-18T02:32:18.804Z,10.63
2023-05-18T02:32:42.921Z,10.62
2023-05-18T02:33:10.139Z,10.63
2023-05-18T02:33:40.329Z,10.63
2023-05-18T02:34:03.023Z,10.63
2023-05-18T02:34:32.129Z,10.64
2023-05-18T02:35:07.557Z,10.64
2023-05-18T02:35:31.289Z,10.64
2023-05-18T02:35:57.981Z,10.65
2023-05-18T02:36:24.902Z,10.65
2023-05-18T02:44:20.614Z,10.84
2023-05-18T02:44:44.191Z,10.88
2023-05-18T02:45:08.563Z,10.90
2023-05-18T02:45:31.412Z,10.93
2023-05-18T02:45:55.501Z,10.96
2023-05-18T02:46:18.020Z,10.97
2023-05-18T02:46:40.784Z,11.00
2023-05-18T02:47:03.069Z,11.01
2023-05-18T02:47:26.514Z,11.03
2023-05-18T02:47:50.891Z,11.05
2023-05-18T03:08:28.545Z,11.42
2023-05-18T03:10:07.808Z,11.49
2023-05-18T03:11:45.340Z,11.62
2023-05-18T06:24:58.462Z,19.45
2023-05-18T06:25:37.539Z,19.55
2023-05-18T06:26:04.842Z,19.59
2023-05-18T06:26:26.936Z,19.61
2023-05-18T06:27:09.918Z,19.64
2023-05-18T06:27:35.152Z,19.66
2023-05-18T06:28:13.269Z,19.68
2023-05-18T06:28:42.341Z,19.70
2023-05-18T06:29:18.724Z,19.73
2023-05-18T06:30:10.446Z,19.76
2023-05-18T06:30:51.924Z,19.79
2023-05-18T06:31:25.014Z,19.82
2023-05-18T06:31:54.806Z,19.85
2023-05-18T06:32:30.663Z,19.88
2023-05-18T06:32:53.140Z,19.90
2023-05-18T06:33:16.082Z,19.92
2023-05-18T06:33:37.885Z,19.94
2023-05-18T06:33:59.703Z,19.96
2023-05-18T06:34:21.593Z,19.98
2023-05-18T06:34:45.491Z,20.00
2023-05-18T06:35:07.523Z,20.03
2023-05-18T06:35:29.568Z,20.05
2023-05-18T06:35:51.936Z,20.07
2023-05-18T06:36:15.636Z,20.09
2023-05-18T06:36:38.637Z,20.10
2023-05-18T06:37:00.523Z,20.13
2023-05-18T06:37:22.515Z,20.15
2023-05-18T06:37:46.203Z,20.17
2023-05-18T06:38:09.152Z,20.19
2023-05-18T06:38:31.269Z,20.21
2023-05-18T06:38:52.954Z,20.23
2023-05-18T06:39:14.703Z,20.25
2023-05-18T06:39:36.594Z,20.27
2023-05-18T06:39:58.693Z,20.28
2023-05-18T06:40:20.482Z,20.30
2023-05-18T06:40:42.728Z,20.32
2023-05-18T06:41:04.779Z,20.33
2023-05-18T06:41:27.256Z,20.35
2023-05-18T06:41:51.177Z,20.36
2023-05-18T06:42:18.501Z,20.38
2023-05-18T06:42:46.533Z,20.40
2023-05-18T06:43:36.729Z,20.42
2023-05-18T06:44:11.414Z,20.44
2023-05-18T06:44:53.445Z,20.47
2023-05-18T06:45:23.103Z,20.49
2023-05-18T06:45:48.279Z,20.50
2023-05-18T06:46:20.779Z,20.51
2023-05-18T06:46:43.648Z,20.53
2023-05-18T06:47:20.310Z,20.55
2023-05-18T06:47:42.856Z,20.57
2023-05-18T06:48:05.221Z,20.58
2023-05-18T06:48:28.020Z,20.61
2023-05-18T06:48:50.926Z,20.62
2023-05-18T06:49:12.913Z,20.64
2023-05-18T06:49:34.689Z,20.66
2023-05-18T06:49:56.771Z,20.68
2023-05-18T06:50:18.663Z,20.69
2023-05-18T06:50:40.889Z,20.71
2023-05-18T06:51:02.789Z,20.72
2023-05-18T06:51:24.813Z,20.74
2023-05-18T06:51:46.443Z,20.75
2023-05-18T06:52:09.650Z,20.77
2023-05-18T06:52:32.252Z,20.78
2023-05-18T06:52:54.239Z,20.80
2023-05-18T06:53:16.134Z,20.83
2023-05-18T06:53:38.321Z,20.84
2023-05-18T06:54:00.306Z,20.86
2023-05-18T06:54:22.045Z,20.88
2023-05-18T06:54:43.993Z,20.89
2023-05-18T06:55:07.066Z,20.91
2023-05-18T06:55:29.531Z,20.93
2023-05-18T06:55:52.081Z,20.95
2023-05-18T06:56:16.240Z,20.97
2023-05-18T06:56:39.630Z,20.98
2023-05-18T06:57:01.602Z,21.01
2023-05-18T06:57:24.332Z,21.03
2023-05-18T06:57:46.260Z,21.05
2023-05-18T06:58:08.611Z,21.06
2023-05-18T06:58:30.809Z,21.08
2023-05-18T06:58:54.955Z,21.10
2023-05-18T06:59:17.315Z,21.11
2023-05-18T06:59:39.525Z,21.12
2023-05-18T07:00:01.970Z,21.14
2023-05-18T07:00:25.623Z,21.15
2023-05-18T07:00:48.907Z,21.16
2023-05-18T07:01:11.750Z,21.17
2023-05-18T07:01:33.521Z,21.18
2023-05-18T07:01:56.828Z,21.20
2023-05-18T07:02:20.737Z,21.21
2023-05-18T07:02:43.826Z,21.23
2023-05-18T07:03:06.024Z,21.24
2023-05-18T07:03:29.274Z,21.24
2023-05-18T07:03:51.688Z,21.27
2023-05-18T07:04:14.034Z,21.29
2023-05-18T07:04:36.353Z,21.30
2023-05-18T07:04:58.242Z,21.32
2023-05-18T07:05:20.130Z,21.34
2023-05-18T07:05:42.018Z,21.36
2023-05-18T07:06:04.416Z,21.37
2023-05-18T07:06:26.233Z,21.38
2023-05-18T07:06:48.409Z,21.40
2023-05-18T07:07:10.282Z,21.41
2023-05-18T07:07:32.067Z,21.42
2023-05-18T07:07:53.885Z,21.44
2023-05-18T07:08:15.851Z,21.46
2023-05-18T07:08:37.693Z,21.48
2023-05-18T07:08:59.404Z,21.49
2023-05-18T07:09:22.514Z,21.51
2023-05-18T07:09:45.667Z,21.53
2023-05-18T07:10:08.043Z,21.56
2023-05-18T07:10:30.362Z,21.58
2023-05-18T07:10:52.628Z,21.60
2023-05-18T07:11:14.713Z,21.61
2023-05-18T07:11:36.839Z,21.63
2023-05-18T07:11:59.226Z,21.66
2023-05-18T07:12:20.983Z,21.68
2023-05-18T07:12:42.871Z,21.70
2023-05-18T07:13:05.522Z,21.71
2023-05-18T07:13:27.360Z,21.73
2023-05-18T07:13:49.243Z,21.75
2023-05-18T07:14:10.911Z,21.77
2023-05-18T07:14:32.814Z,21.79
2023-05-18T07:14:54.445Z,21.81
2023-05-18T07:15:16.493Z,21.83
2023-05-18T07:15:38.369Z,21.85
2023-05-18T07:16:00.626Z,21.86
2023-05-18T07:16:23.065Z,21.88
2023-05-18T07:16:46.893Z,21.91
2023-05-18T07:17:08.550Z,21.92
2023-05-18T07:17:30.814Z,21.94
2023-05-18T07:17:52.508Z,21.94
2023-05-18T07:18:14.318Z,21.96
2023-05-18T07:18:36.221Z,21.97
2023-05-18T07:18:58.514Z,21.98
2023-05-18T07:19:20.583Z,21.99
2023-05-18T07:19:42.404Z,22.00
2023-05-18T07:20:06.251Z,22.02
2023-05-18T07:20:28.426Z,22.03
2023-05-18T07:20:50.209Z,22.04
2023-05-18T07:21:12.379Z,22.05
2023-05-18T07:21:33.975Z,22.05
2023-05-18T07:21:56.409Z,22.07
2023-05-18T07:22:18.041Z,22.08
2023-05-18T07:22:39.847Z,22.09
2023-05-18T07:23:01.559Z,22.11
2023-05-18T07:23:23.627Z,22.13
2023-05-18T07:23:45.818Z,22.14
2023-05-18T07:24:07.571Z,22.15
2023-05-18T07:24:29.634Z,22.17
2023-05-18T07:24:51.332Z,22.19
2023-05-18T07:25:13.045Z,22.20
2023-05-18T07:25:36.069Z,22.20
2023-05-18T07:25:57.813Z,22.23
2023-05-18T07:26:19.600Z,22.24
2023-05-18T07:26:41.524Z,22.26
2023-05-18T07:27:03.438Z,22.27
2023-05-18T07:27:26.022Z,22.28
2023-05-18T07:27:47.694Z,22.30
2023-05-18T07:28:09.489Z,22.31
2023-05-18T07:28:31.525Z,22.33
2023-05-18T07:28:53.239Z,22.34
2023-05-18T07:29:15.244Z,22.36
2023-05-18T07:29:37.229Z,22.38
2023-05-18T07:29:59.319Z,22.39
2023-05-18T07:30:21.477Z,22.40
2023-05-18T07:30:43.279Z,22.41
2023-05-18T07:31:05.616Z,22.42
2023-05-18T07:31:27.665Z,22.44
2023-05-18T07:31:49.593Z,22.47
2023-05-18T07:32:11.332Z,22.48
2023-05-18T07:32:33.259Z,22.50
2023-05-18T07:32:56.157Z,22.52
2023-05-18T07:33:17.786Z,22.54
2023-05-18T07:33:41.179Z,22.57
2023-05-18T07:34:02.872Z,22.59
2023-05-18T07:34:26.779Z,22.61
2023-05-18T07:34:48.929Z,22.63
2023-05-18T07:35:11.163Z,22.66
2023-05-18T07:35:33.317Z,22.67
2023-05-18T07:35:55.448Z,22.70
2023-05-18T07:36:17.121Z,22.72
2023-05-18T07:36:38.686Z,22.75
2023-05-18T07:37:00.598Z,22.77
2023-05-18T07:37:22.375Z,22.80
2023-05-18T07:37:44.367Z,22.81
2023-05-18T07:38:06.153Z,22.83
2023-05-18T07:38:28.419Z,22.85
2023-05-18T07:38:54.428Z,22.87
2023-05-18T07:39:19.510Z,22.89
2023-05-18T07:39:41.675Z,22.91
2023-05-18T07:40:04.415Z,22.92
2023-05-18T07:40:26.448Z,22.94
2023-05-18T07:40:48.253Z,22.96
2023-05-18T07:41:11.779Z,22.98
2023-05-18T07:41:33.874Z,23.00
2023-05-18T07:41:57.200Z,23.02
2023-05-18T07:42:20.515Z,23.04
2023-05-18T07:42:42.907Z,23.06
2023-05-18T07:43:05.508Z,23.08
2023-05-18T07:43:29.140Z,23.10
2023-05-18T07:43:51.538Z,23.13
2023-05-18T07:44:18.339Z,23.15
2023-05-18T07:52:18.609Z,23.61
2023-05-18T07:52:41.744Z,23.63
2023-05-18T07:53:06.398Z,23.64
2023-05-18T08:13:45.788Z,24.31
2023-05-18T08:14:07.464Z,24.32
2023-05-18T08:14:29.306Z,24.32
2023-05-18T08:14:51.116Z,24.33
2023-05-18T08:15:12.899Z,24.33
2023-05-18T08:15:35.266Z,24.33
2023-05-18T08:16:10.521Z,24.34
2023-05-18T08:16:36.755Z,24.35
2023-05-18T08:16:58.646Z,24.37
2023-05-18T08:17:20.586Z,24.38
2023-05-18T08:17:42.434Z,24.39
2023-05-18T08:18:04.338Z,24.41
2023-05-18T08:18:27.498Z,24.42
2023-05-18T08:18:49.412Z,24.44
2023-05-18T08:19:11.250Z,24.45
2023-05-18T08:19:33.060Z,24.47
2023-05-18T08:19:54.850Z,24.48
2023-05-18T08:20:16.835Z,24.50
2023-05-18T08:20:39.124Z,24.51
2023-05-18T08:21:03.572Z,24.52
2023-05-18T08:21:26.375Z,24.54
2023-05-18T08:21:48.059Z,24.55
2023-05-18T08:22:10.775Z,24.57
2023-05-18T08:22:32.654Z,24.58
2023-05-18T08:22:54.469Z,24.60
2023-05-18T08:23:16.323Z,24.63
2023-05-18T08:23:38.540Z,24.65
2023-05-18T08:24:01.480Z,24.67
2023-05-18T08:24:23.346Z,24.69
2023-05-18T08:24:45.282Z,24.71
2023-05-18T08:25:07.494Z,24.74
2023-05-18T08:25:29.601Z,24.76
2023-05-18T08:25:51.838Z,24.78
2023-05-18T08:26:14.302Z,24.78
2023-05-18T08:26:36.474Z,24.80
2023-05-18T08:26:58.173Z,24.81
2023-05-18T08:27:20.040Z,24.82
2023-05-18T08:27:42.073Z,24.82
2023-05-18T08:28:03.943Z,24.83
2023-05-18T08:28:26.719Z,24.83
2023-05-18T08:28:48.597Z,24.82
2023-05-18T08:29:10.470Z,24.83
2023-05-18T08:29:32.254Z,24.83
2023-05-18T08:29:54.098Z,24.83
2023-05-18T08:30:15.921Z,24.83
2023-05-18T08:30:38.249Z,24.85
2023-05-18T08:31:00.443Z,24.85
2023-05-18T08:31:22.253Z,24.86
2023-05-18T08:31:44.973Z,24.87
2023-05-18T08:32:08.199Z,24.88
2023-05-18T08:32:30.159Z,24.89
2023-05-18T08:32:51.974Z,24.90
2023-05-18T08:33:13.964Z,24.91
2023-05-18T08:33:36.001Z,24.92
2023-05-18T08:33:57.719Z,24.92
2023-05-18T08:34:19.589Z,24.93
2023-05-18T08:34:41.558Z,24.93
2023-05-18T08:35:04.157Z,24.93
2023-05-18T08:35:26.662Z,24.94
2023-05-18T08:35:48.825Z,24.95
2023-05-18T08:36:11.048Z,24.96
2023-05-18T08:36:35.484Z,24.98
2023-05-18T08:36:58.198Z,24.99
2023-05-18T08:37:21.720Z,25.00
2023-05-18T08:37:43.646Z,25.01
2023-05-18T08:38:05.918Z,25.02
2023-05-18T08:38:27.892Z,25.03
2023-05-18T08:38:50.094Z,25.04
2023-05-18T08:39:12.276Z,25.03
2023-05-18T08:39:34.354Z,25.04
2023-05-18T08:39:56.357Z,25.04
2023-05-18T08:40:18.117Z,25.04
2023-05-18T08:40:56.093Z,25.05
2023-05-18T08:41:26.263Z,25.04
2023-05-18T08:41:50.395Z,25.03
2023-05-18T08:42:45.650Z,25.01
2023-05-18T08:43:13.369Z,24.99
2023-05-18T08:43:36.964Z,24.98
2023-05-18T08:44:00.573Z,24.96
2023-05-18T08:44:22.708Z,24.96
2023-05-18T08:44:51.935Z,24.95
2023-05-18T08:45:18.324Z,24.94
2023-05-18T08:45:42.252Z,24.94
2023-05-18T08:46:13.584Z,24.95
2023-05-18T08:46:42.150Z,24.95
2023-05-18T08:47:04.480Z,24.95
2023-05-18T08:47:26.739Z,24.97
2023-05-18T08:47:51.654Z,24.98
2023-05-18T08:48:14.760Z,24.98
2023-05-18T08:48:36.742Z,25.00
2023-05-18T08:48:58.810Z,25.01
2023-05-18T08:49:21.224Z,25.02
2023-05-18T08:49:43.234Z,25.03
2023-05-18T08:50:05.816Z,25.03
2023-05-18T08:50:27.802Z,25.03
2023-05-18T08:50:50.831Z,25.04
2023-05-18T08:51:14.513Z,25.05
2023-05-18T08:51:36.640Z,25.05
2023-05-18T08:52:00.257Z,25.05
2023-05-18T08:52:22.072Z,25.04
2023-05-18T08:52:46.695Z,25.03
2023-05-18T08:53:09.612Z,25.02
2023-05-18T08:53:32.618Z,25.01
2023-05-18T08:53:54.366Z,25.00
2023-05-18T08:54:19.138Z,24.98
2023-05-18T08:54:41.052Z,24.97
2023-05-18T08:55:07.005Z,24.96
2023-05-18T08:55:36.277Z,24.95
2023-05-18T08:55:58.567Z,24.95
2023-05-18T08:56:23.624Z,24.95
2023-05-18T08:56:46.111Z,24.95
2023-05-18T08:57:09.126Z,24.95
2023-05-18T08:57:31.627Z,24.95
2023-05-18T08:57:55.566Z,24.96
2023-05-18T08:58:17.354Z,24.96
2023-05-18T08:58:47.217Z,24.98
2023-05-18T08:59:08.985Z,25.00
2023-05-18T08:59:31.099Z,25.01
2023-05-18T08:59:52.907Z,25.03
2023-05-18T09:00:14.788Z,25.06
2023-05-18T09:00:36.957Z,25.08
2023-05-18T09:00:59.342Z,25.11
2023-05-18T09:01:23.003Z,25.14
2023-05-18T09:01:45.023Z,25.17
2023-05-18T09:02:07.368Z,25.18
2023-05-18T09:02:30.895Z,25.20
2023-05-18T09:02:53.034Z,25.21
2023-05-18T09:03:15.062Z,25.22
2023-05-18T09:03:37.786Z,25.23
2023-05-18T09:04:02.166Z,25.24
2023-05-18T09:04:24.291Z,25.24
2023-05-18T09:04:46.721Z,25.25
2023-05-18T09:05:08.876Z,25.27
2023-05-18T09:05:31.032Z,25.29
2023-05-18T09:05:53.394Z,25.30
2023-05-18T09:06:15.689Z,25.32
2023-05-18T09:06:38.054Z,25.32
2023-05-18T09:07:02.101Z,25.34
2023-05-18T09:07:24.128Z,25.36
2023-05-18T09:07:45.886Z,25.38
2023-05-18T09:08:07.884Z,25.39
2023-05-18T09:08:30.691Z,25.41
2023-05-18T09:08:53.475Z,25.42
2023-05-18T09:09:15.682Z,25.44
2023-05-18T09:09:37.864Z,25.44
2023-05-18T09:09:59.769Z,25.45
2023-05-18T09:10:21.574Z,25.46
2023-05-18T09:10:43.340Z,25.47
2023-05-18T09:11:05.043Z,25.48
2023-05-18T09:11:27.629Z,25.49
2023-05-18T09:11:49.472Z,25.50
2023-05-18T09:12:11.123Z,25.51
2023-05-18T09:12:32.970Z,25.52
2023-05-18T09:12:54.772Z,25.52
2023-05-18T09:13:19.439Z,25.53
2023-05-18T09:13:41.196Z,25.54
2023-05-18T09:14:03.180Z,25.56
2023-05-18T09:14:26.198Z,25.56
2023-05-18T09:14:47.898Z,25.57